Weichang, China
Current Conditions -  °F | °C
As of 3:00 AM on Friday 19 Dec 2014 (Local Time) from ZBAA Reporting Station
Haze Haze  
Wind Chill: -8°   Ceiling: Unl
Heat Index: -5°   Visibility: 2.5mi
Dew Point: -8°   Wind: 4mph
Humidity: 80%   Direction: 340°NNW
Pressure: 30.18"   Gusts: NA
Location:  41.93°N, 117.75°E
Report Text: ZBAA 181900Z 34002MPS 4000 BR NSC M05/M08 Q1022 NOSIG
Loading
Personal Weather Stations






























Interactive Weather Map New forecast layout! Learn more

10-Day Weather Forecast

Advertisements
Track Severe Weather on mobile